createdAt,value
2023-04-09T00:00:34.361Z,240.44
2023-04-09T00:01:34.426Z,243.52
2023-04-09T00:02:34.417Z,238.94
2023-04-09T00:03:34.562Z,243.91
2023-04-09T00:04:34.448Z,243.87
2023-04-09T00:05:34.432Z,243.66
2023-04-09T00:06:34.435Z,244.47
2023-04-09T00:07:34.464Z,243.67
2023-04-09T00:08:34.478Z,240.06
2023-04-09T00:09:34.500Z,242.26
2023-04-09T00:10:34.480Z,240.80
2023-04-09T00:11:34.515Z,242.38
2023-04-09T00:12:34.548Z,239.99
2023-04-09T00:13:39.044Z,241.99
2023-04-09T00:14:35.533Z,242.04
2023-04-09T00:15:34.497Z,242.40
2023-04-09T00:16:34.540Z,242.54
2023-04-09T00:17:34.504Z,242.42
2023-04-09T00:18:34.462Z,242.86
2023-04-09T00:19:34.424Z,239.79
2023-04-09T00:20:34.402Z,240.80
2023-04-09T00:21:34.393Z,239.24
2023-04-09T00:22:34.356Z,240.96
2023-04-09T00:23:34.343Z,241.66
2023-04-09T00:24:34.322Z,242.12
2023-04-09T00:25:34.292Z,240.30
2023-04-09T00:26:34.283Z,242.24
2023-04-09T00:27:34.254Z,243.10
2023-04-09T00:28:34.238Z,241.12
2023-04-09T00:29:34.219Z,241.82
2023-04-09T00:30:34.178Z,243.40
2023-04-09T00:31:34.218Z,237.78
2023-04-09T00:32:34.220Z,240.80
2023-04-09T00:33:34.228Z,238.62
2023-04-09T00:34:34.250Z,238.72
2023-04-09T00:35:34.323Z,242.58
2023-04-09T00:36:34.278Z,242.01
2023-04-09T00:37:34.293Z,241.95
2023-04-09T00:38:34.297Z,241.14
2023-04-09T00:39:34.320Z,241.31
2023-04-09T00:40:34.341Z,243.38
2023-04-09T00:41:34.349Z,243.75
2023-04-09T00:42:34.361Z,242.47
2023-04-09T00:43:34.388Z,242.57
2023-04-09T00:44:34.424Z,242.42
2023-04-09T00:45:34.469Z,238.86
2023-04-09T00:46:34.432Z,243.37
2023-04-09T00:47:34.473Z,240.43
2023-04-09T00:48:34.457Z,242.90
2023-04-09T00:49:34.475Z,240.41
2023-04-09T00:50:34.474Z,240.68
2023-04-09T00:51:34.488Z,239.96
2023-04-09T00:52:34.521Z,242.44
2023-04-09T00:53:34.511Z,240.98
2023-04-09T00:54:34.538Z,240.76
2023-04-09T00:55:34.565Z,238.12
2023-04-09T00:56:34.559Z,242.62
2023-04-09T00:57:34.600Z,242.11
2023-04-09T00:58:34.608Z,243.31
2023-04-09T00:59:34.635Z,243.64
2023-04-09T01:00:34.636Z,241.91
2023-04-09T01:01:34.733Z,240.23
2023-04-09T01:02:34.919Z,241.19
2023-04-09T01:03:34.891Z,241.11
2023-04-09T01:04:34.698Z,241.11
2023-04-09T01:05:34.717Z,241.02
2023-04-09T01:06:34.707Z,241.47
2023-04-09T01:07:34.730Z,240.52
2023-04-09T01:08:34.736Z,241.23
2023-04-09T01:09:34.752Z,239.34
2023-04-09T01:10:34.791Z,242.77
2023-04-09T01:11:34.773Z,241.20
2023-04-09T01:12:34.803Z,240.65
2023-04-09T01:13:34.804Z,237.20
2023-04-09T01:14:34.832Z,238.30
2023-04-09T01:15:34.844Z,243.16
2023-04-09T01:16:34.884Z,241.57
2023-04-09T01:17:34.956Z,239.98
2023-04-09T01:18:34.883Z,239.00
2023-04-09T01:19:34.893Z,242.17
2023-04-09T01:20:34.914Z,238.87
2023-04-09T01:21:34.932Z,242.55
2023-04-09T01:22:34.956Z,242.32
2023-04-09T01:23:34.985Z,240.32
2023-04-09T01:24:35.019Z,242.48
2023-04-09T01:25:35.030Z,240.42
2023-04-09T01:26:35.048Z,241.72
2023-04-09T01:27:35.026Z,241.73
2023-04-09T01:28:35.010Z,241.96
2023-04-09T01:29:34.988Z,242.13
2023-04-09T01:30:35.074Z,241.33
2023-04-09T01:31:34.951Z,240.82
2023-04-09T01:32:35.029Z,244.83
2023-04-09T01:33:34.912Z,242.24
2023-04-09T01:34:34.897Z,241.06
2023-04-09T01:35:34.897Z,241.32
2023-04-09T01:36:34.850Z,242.63
2023-04-09T01:37:34.846Z,241.38
2023-04-09T01:38:34.804Z,241.58
2023-04-09T01:39:34.806Z,240.88
2023-04-09T01:40:34.765Z,242.29
2023-04-09T01:41:34.766Z,241.11
2023-04-09T01:42:34.780Z,240.73
2023-04-09T01:43:34.804Z,241.43
2023-04-09T01:44:34.817Z,242.21
2023-04-09T01:45:34.856Z,239.81
2023-04-09T01:46:34.934Z,241.41
2023-04-09T01:47:34.927Z,240.24
2023-04-09T01:48:34.906Z,241.65
2023-04-09T01:49:34.913Z,242.83
2023-04-09T01:50:34.964Z,240.42
2023-04-09T01:51:34.977Z,241.21
2023-04-09T01:52:34.969Z,242.64
2023-04-09T01:53:35.002Z,241.14
2023-04-09T01:54:35.020Z,242.83
2023-04-09T01:55:35.066Z,242.43
2023-04-09T01:56:35.076Z,243.63
2023-04-09T01:57:35.068Z,242.60
2023-04-09T01:58:35.094Z,242.78
2023-04-09T01:59:35.110Z,243.37
2023-04-09T02:00:35.129Z,241.78
2023-04-09T02:01:35.212Z,241.18
2023-04-09T02:02:35.326Z,241.33
2023-04-09T02:03:35.221Z,241.48
2023-04-09T02:04:35.200Z,242.44
2023-04-09T02:05:35.246Z,241.07
2023-04-09T02:06:35.261Z,237.12
2023-04-09T02:07:35.267Z,241.20
2023-04-09T02:08:35.312Z,241.26
2023-04-09T02:09:35.313Z,241.50
2023-04-09T02:10:35.357Z,240.33
2023-04-09T02:11:35.362Z,241.32
2023-04-09T02:12:35.393Z,241.61
2023-04-09T02:13:35.412Z,241.63
2023-04-09T02:14:35.433Z,240.96
2023-04-09T02:15:35.465Z,241.64
2023-04-09T02:16:35.456Z,241.32
2023-04-09T02:17:35.486Z,239.88
2023-04-09T02:18:35.515Z,242.02
2023-04-09T02:19:35.512Z,241.42
2023-04-09T02:20:35.549Z,239.68
2023-04-09T02:21:35.561Z,240.64
2023-04-09T02:22:35.560Z,239.03
2023-04-09T02:23:35.579Z,241.22
2023-04-09T02:24:35.617Z,239.40
2023-04-09T02:25:35.630Z,240.32
2023-04-09T02:26:35.647Z,240.42
2023-04-09T02:27:35.655Z,237.34
2023-04-09T02:28:35.706Z,240.67
2023-04-09T02:29:35.729Z,239.30
2023-04-09T02:30:35.738Z,241.25
2023-04-09T02:31:35.836Z,241.74
2023-04-09T02:32:35.804Z,241.12
2023-04-09T02:33:35.815Z,242.29
2023-04-09T02:34:35.778Z,241.19
2023-04-09T02:35:35.804Z,242.49
2023-04-09T02:36:35.722Z,242.11
2023-04-09T02:37:35.699Z,241.16
2023-04-09T02:38:35.673Z,240.71
2023-04-09T02:39:35.645Z,241.02
2023-04-09T02:40:35.626Z,241.79
2023-04-09T02:41:35.585Z,240.04
2023-04-09T02:42:35.570Z,240.90
2023-04-09T02:43:35.532Z,240.92
2023-04-09T02:44:35.517Z,238.72
2023-04-09T02:45:35.478Z,232.76
2023-04-09T02:46:35.530Z,223.60
2023-04-09T02:47:35.511Z,221.35
2023-04-09T02:48:35.528Z,209.50
2023-04-09T02:49:35.553Z,195.00
2023-04-09T02:50:35.609Z,178.27
2023-04-09T02:51:35.644Z,163.05
2023-04-09T02:52:35.661Z,148.23
2023-04-09T02:53:35.700Z,135.67
2023-04-09T02:54:35.721Z,120.72
2023-04-09T02:55:35.753Z,105.66
2023-04-09T02:56:35.776Z,94.87
2023-04-09T02:57:35.802Z,84.84
2023-04-09T02:58:35.845Z,73.54
2023-04-09T02:59:35.827Z,62.13
2023-04-09T03:00:35.904Z,54.92
2023-04-09T03:01:36.064Z,46.41
2023-04-09T03:02:36.092Z,38.48
2023-04-09T03:03:35.990Z,29.99
2023-04-09T03:04:35.965Z,25.00
2023-04-09T03:05:35.975Z,25.00
2023-04-09T03:06:35.979Z,25.67
2023-04-09T03:07:35.993Z,24.64
2023-04-09T03:08:35.996Z,25.49
2023-04-09T03:09:36.056Z,25.72
2023-04-09T03:10:36.012Z,25.46
2023-04-09T03:11:36.059Z,25.00
2023-04-09T03:12:36.044Z,25.64
2023-04-09T03:13:36.052Z,26.19
2023-04-09T03:14:36.096Z,24.54
2023-04-09T03:15:36.115Z,25.78
2023-04-09T03:16:36.089Z,24.78
2023-04-09T03:17:36.102Z,22.05
2023-04-09T03:18:36.037Z,18.12
2023-04-09T03:19:36.032Z,16.09
2023-04-09T03:20:36.009Z,16.00
2023-04-09T03:21:36.010Z,13.33
2023-04-09T03:22:35.978Z,9.67
2023-04-09T03:23:35.968Z,8.04
2023-04-09T03:24:35.960Z,6.68
2023-04-09T03:25:35.944Z,4.85
2023-04-09T03:26:35.954Z,16.80
2023-04-09T03:27:35.922Z,25.04
2023-04-09T03:28:35.923Z,25.75
2023-04-09T03:29:35.930Z,25.79
2023-04-09T03:30:35.898Z,26.71
2023-04-09T03:31:35.958Z,25.00
2023-04-09T03:32:35.944Z,25.55
2023-04-09T03:33:35.881Z,26.88
2023-04-09T03:34:35.856Z,26.70
2023-04-09T03:35:35.878Z,25.35
2023-04-09T03:36:35.831Z,25.12
2023-04-09T03:37:35.871Z,25.86
2023-04-09T03:38:35.893Z,25.66
2023-04-09T03:39:35.927Z,25.39
2023-04-09T03:40:35.976Z,25.32
2023-04-09T03:41:36.003Z,25.31
2023-04-09T03:42:36.056Z,25.09
2023-04-09T03:43:36.081Z,25.20
2023-04-09T03:44:36.137Z,25.00
2023-04-09T03:45:36.144Z,25.15
2023-04-09T03:46:36.273Z,25.39
2023-04-09T03:47:36.255Z,25.00
2023-04-09T03:48:36.254Z,25.53
2023-04-09T03:49:36.276Z,25.55
2023-04-09T03:50:36.345Z,26.04
2023-04-09T03:51:36.362Z,25.00
2023-04-09T03:52:36.383Z,25.44
2023-04-09T03:53:36.452Z,25.89
2023-04-09T03:54:36.491Z,25.43
2023-04-09T03:55:36.528Z,25.15
2023-04-09T03:56:36.565Z,25.71
2023-04-09T03:57:36.605Z,25.16
2023-04-09T03:58:36.642Z,26.05
2023-04-09T03:59:36.694Z,25.03
2023-04-09T04:00:36.751Z,25.71
2023-04-09T04:01:36.865Z,26.39
2023-04-09T04:02:36.980Z,25.00
2023-04-09T04:03:37.118Z,28.68
2023-04-09T04:04:37.000Z,27.34
2023-04-09T04:05:36.971Z,25.61
2023-04-09T04:06:37.073Z,27.24
2023-04-09T04:07:37.041Z,26.50
2023-04-09T04:08:37.024Z,26.62
2023-04-09T04:09:37.016Z,26.35
2023-04-09T04:10:37.006Z,24.89
2023-04-09T04:11:36.987Z,25.10
2023-04-09T04:12:36.981Z,25.08
2023-04-09T04:13:36.972Z,25.54
2023-04-09T04:14:36.947Z,25.32
2023-04-09T04:15:36.978Z,26.63
2023-04-09T04:16:37.071Z,27.38
2023-04-09T04:17:37.180Z,25.58
2023-04-09T04:18:37.147Z,27.21
2023-04-09T04:19:37.178Z,26.02
2023-04-09T04:20:37.237Z,26.92
2023-04-09T04:21:37.297Z,26.57
2023-04-09T04:22:37.356Z,25.77
2023-04-09T04:23:37.418Z,24.65
2023-04-09T04:24:37.473Z,27.03
2023-04-09T04:25:37.517Z,26.78
2023-04-09T04:26:37.588Z,27.23
2023-04-09T04:27:37.623Z,26.87
2023-04-09T04:28:37.686Z,26.44
2023-04-09T04:29:37.767Z,27.17
2023-04-09T04:30:37.758Z,25.32
2023-04-09T04:31:37.859Z,25.58
2023-04-09T04:32:37.893Z,26.84
2023-04-09T04:33:37.908Z,26.77
2023-04-09T04:34:37.941Z,26.79
2023-04-09T04:35:38.013Z,26.40
2023-04-09T04:36:38.000Z,26.96
2023-04-09T04:37:38.044Z,26.04
2023-04-09T04:38:38.098Z,26.61
2023-04-09T04:39:38.144Z,26.05
2023-04-09T04:40:38.186Z,27.14
2023-04-09T04:41:38.259Z,25.71
2023-04-09T04:42:38.300Z,26.50
2023-04-09T04:43:38.332Z,27.75
2023-04-09T04:44:38.410Z,27.94
2023-04-09T04:45:38.480Z,27.70
2023-04-09T04:46:38.526Z,28.55
2023-04-09T04:47:38.556Z,27.70
2023-04-09T04:48:38.561Z,27.98
2023-04-09T04:49:38.581Z,27.95
2023-04-09T04:50:38.616Z,28.17
2023-04-09T04:51:38.635Z,28.46
2023-04-09T04:52:38.673Z,28.49
2023-04-09T04:53:38.700Z,28.46
2023-04-09T04:54:38.723Z,30.03
2023-04-09T04:55:38.717Z,30.01
2023-04-09T04:56:38.729Z,30.12
2023-04-09T04:57:38.701Z,30.03
2023-04-09T04:58:38.695Z,31.42
2023-04-09T04:59:38.680Z,31.67
2023-04-09T05:00:38.672Z,31.41
2023-04-09T05:01:38.724Z,31.46
2023-04-09T05:02:38.760Z,31.52
2023-04-09T05:03:38.677Z,31.12
2023-04-09T05:04:38.650Z,31.93
2023-04-09T05:05:38.629Z,31.48
2023-04-09T05:06:38.624Z,31.44
2023-04-09T05:07:38.613Z,31.29
2023-04-09T05:08:38.605Z,31.58
2023-04-09T05:09:38.635Z,32.80
2023-04-09T05:10:38.596Z,33.55
2023-04-09T05:11:38.587Z,33.10
2023-04-09T05:12:38.589Z,34.25
2023-04-09T05:13:38.560Z,34.48
2023-04-09T05:14:38.552Z,35.57
2023-04-09T05:15:38.541Z,35.83
2023-04-09T05:16:38.554Z,35.78
2023-04-09T05:17:38.584Z,33.83
2023-04-09T05:18:38.525Z,35.19
2023-04-09T05:19:38.532Z,35.90
2023-04-09T05:20:38.517Z,34.72
2023-04-09T05:21:38.507Z,35.59
2023-04-09T05:22:38.532Z,36.84
2023-04-09T05:23:38.558Z,36.64
2023-04-09T05:24:38.580Z,35.50
2023-04-09T05:25:38.629Z,35.87
2023-04-09T05:26:38.680Z,36.80
2023-04-09T05:27:38.741Z,36.60
2023-04-09T05:28:38.799Z,35.36
2023-04-09T05:29:38.875Z,36.19
2023-04-09T05:30:38.966Z,37.45
2023-04-09T05:31:38.961Z,37.27
2023-04-09T05:32:39.041Z,35.22
2023-04-09T05:33:39.032Z,36.20
2023-04-09T05:34:39.042Z,36.21
2023-04-09T05:35:39.090Z,37.09
2023-04-09T05:36:39.088Z,36.35
2023-04-09T05:37:39.131Z,36.61
2023-04-09T05:38:39.108Z,37.78
2023-04-09T05:39:39.125Z,38.49
2023-04-09T05:40:39.176Z,37.11
2023-04-09T05:41:39.292Z,36.77
2023-04-09T05:42:39.249Z,37.39
2023-04-09T05:43:39.201Z,36.72
2023-04-09T05:44:39.266Z,36.81
2023-04-09T05:45:39.341Z,37.39
2023-04-09T05:46:39.221Z,36.60
2023-04-09T05:47:39.282Z,36.59
2023-04-09T05:48:39.232Z,37.47
2023-04-09T05:49:39.253Z,34.96
2023-04-09T05:50:53.446Z,37.03
2023-04-09T05:51:40.248Z,36.88
2023-04-09T05:52:39.297Z,37.04
2023-04-09T05:53:39.231Z,35.01
2023-04-09T05:54:39.229Z,36.07
2023-04-09T05:55:39.243Z,34.79
2023-04-09T05:56:39.220Z,35.71
2023-04-09T05:57:39.325Z,34.68
2023-04-09T05:58:39.200Z,33.87
2023-04-09T05:59:39.203Z,34.60
2023-04-09T06:00:39.164Z,34.51
2023-04-09T06:01:39.194Z,32.67
2023-04-09T06:02:39.197Z,32.42
2023-04-09T06:03:39.226Z,31.67
2023-04-09T06:04:39.182Z,30.76
2023-04-09T06:05:39.137Z,30.19
2023-04-09T06:06:39.145Z,31.17
2023-04-09T06:07:39.123Z,29.62
2023-04-09T06:08:39.115Z,29.62
2023-04-09T06:09:39.096Z,31.54
2023-04-09T06:10:40.456Z,30.35
2023-04-09T06:11:39.112Z,30.35
2023-04-09T06:12:39.088Z,31.44
2023-04-09T06:13:39.088Z,30.38
2023-04-09T06:14:39.096Z,31.02
2023-04-09T06:15:39.086Z,31.09
2023-04-09T06:16:39.057Z,31.06
2023-04-09T06:17:39.091Z,32.17
2023-04-09T06:18:39.064Z,32.62
2023-04-09T06:19:39.053Z,33.23
2023-04-09T06:20:39.030Z,34.09
2023-04-09T06:21:39.054Z,34.82
2023-04-09T06:22:39.093Z,36.14
2023-04-09T06:23:39.005Z,36.81
2023-04-09T06:24:38.988Z,35.88
2023-04-09T06:25:38.995Z,37.76
2023-04-09T06:26:38.999Z,38.11
2023-04-09T06:27:39.009Z,38.94
2023-04-09T06:28:39.018Z,39.34
2023-04-09T06:29:39.019Z,39.63
2023-04-09T06:30:38.997Z,40.09
2023-04-09T06:31:39.058Z,41.74
2023-04-09T06:32:47.300Z,41.64
2023-04-09T06:33:40.005Z,41.71
2023-04-09T06:34:38.986Z,41.68
2023-04-09T06:35:38.996Z,41.78
2023-04-09T06:36:38.966Z,42.09
2023-04-09T06:37:38.932Z,42.74
2023-04-09T06:38:38.945Z,41.75
2023-04-09T06:39:42.569Z,41.94
2023-04-09T06:40:39.911Z,41.72
2023-04-09T06:41:38.924Z,42.07
2023-04-09T06:42:38.895Z,42.74
2023-04-09T06:43:38.904Z,44.42
2023-04-09T06:44:38.876Z,46.29
2023-04-09T06:45:40.969Z,47.28
2023-04-09T06:46:39.006Z,47.98
2023-04-09T06:47:38.875Z,48.85
2023-04-09T06:48:38.799Z,49.91
2023-04-09T06:49:38.808Z,50.12
2023-04-09T06:50:38.783Z,52.63
2023-04-09T06:51:38.759Z,51.81
2023-04-09T06:52:38.727Z,51.91
2023-04-09T06:53:38.905Z,53.02
2023-04-09T06:54:38.700Z,54.72
2023-04-09T06:55:38.744Z,54.30
2023-04-09T06:56:38.675Z,55.53
2023-04-09T06:57:38.693Z,58.34
2023-04-09T06:58:38.657Z,58.22
2023-04-09T06:59:38.926Z,60.76
2023-04-09T07:00:38.676Z,60.33
2023-04-09T07:01:38.700Z,62.04
2023-04-09T07:02:38.789Z,62.03
2023-04-09T07:03:38.788Z,62.97
2023-04-09T07:04:38.846Z,65.18
2023-04-09T07:05:38.672Z,64.48
2023-04-09T07:06:38.703Z,63.79
2023-04-09T07:07:38.705Z,66.35
2023-04-09T07:08:38.714Z,65.18
2023-04-09T07:09:38.724Z,67.61
2023-04-09T07:10:38.707Z,68.13
2023-04-09T07:11:38.738Z,68.64
2023-04-09T07:12:38.743Z,67.26
2023-04-09T07:13:38.745Z,67.74
2023-04-09T07:14:38.720Z,69.65
2023-04-09T07:15:40.095Z,71.54
2023-04-09T07:16:38.786Z,69.74
2023-04-09T07:17:38.743Z,70.95
2023-04-09T07:18:38.735Z,70.87
2023-04-09T07:19:38.700Z,71.79
2023-04-09T07:20:38.693Z,70.16
2023-04-09T07:21:38.686Z,71.85
2023-04-09T07:22:38.676Z,72.97
2023-04-09T07:23:38.711Z,71.44
2023-04-09T07:24:38.655Z,72.09
2023-04-09T07:25:38.638Z,73.35
2023-04-09T07:26:38.628Z,72.23
2023-04-09T07:27:38.638Z,71.66
2023-04-09T07:28:38.613Z,72.30
2023-04-09T07:29:38.595Z,72.85
2023-04-09T07:30:38.595Z,73.06
2023-04-09T07:31:38.596Z,71.97
2023-04-09T07:32:38.594Z,71.34
2023-04-09T07:33:38.577Z,72.26
2023-04-09T07:34:38.549Z,72.82
2023-04-09T07:35:38.544Z,72.20
2023-04-09T07:36:38.520Z,70.10
2023-04-09T07:37:38.507Z,70.61
2023-04-09T07:38:38.500Z,73.13
2023-04-09T07:39:38.477Z,72.25
2023-04-09T07:40:38.474Z,71.47
2023-04-09T07:41:38.461Z,72.21
2023-04-09T07:42:38.456Z,71.42
2023-04-09T07:43:38.481Z,70.25
2023-04-09T07:44:38.430Z,72.36
2023-04-09T07:45:38.407Z,72.97
2023-04-09T07:46:38.486Z,73.40
2023-04-09T07:47:38.398Z,75.74
2023-04-09T07:48:38.404Z,75.07
2023-04-09T07:49:38.365Z,74.36
2023-04-09T07:50:38.363Z,75.31
2023-04-09T07:51:38.347Z,74.24
2023-04-09T07:52:38.341Z,76.08
2023-04-09T07:53:38.341Z,74.90
2023-04-09T07:54:38.349Z,76.06
2023-04-09T07:55:38.303Z,72.88
2023-04-09T07:56:38.288Z,74.03
2023-04-09T07:57:38.264Z,74.38
2023-04-09T07:58:38.260Z,73.81
2023-04-09T07:59:38.262Z,74.35
2023-04-09T08:00:38.240Z,73.22
2023-04-09T08:01:38.290Z,73.82
2023-04-09T08:02:38.360Z,74.65
2023-04-09T08:03:38.437Z,72.22
2023-04-09T08:04:38.354Z,74.97
2023-04-09T08:05:38.186Z,75.67
2023-04-09T08:06:38.167Z,75.27
2023-04-09T08:07:38.138Z,74.33
2023-04-09T08:08:38.156Z,76.40
2023-04-09T08:09:38.120Z,74.35
2023-04-09T08:10:38.122Z,75.04
2023-04-09T08:11:38.104Z,74.59
2023-04-09T08:12:38.098Z,75.55
2023-04-09T08:13:38.106Z,76.02
2023-04-09T08:14:38.085Z,78.16
2023-04-09T08:15:38.062Z,76.76
2023-04-09T08:16:38.107Z,75.69
2023-04-09T08:17:38.074Z,76.50
2023-04-09T08:18:38.054Z,75.77
2023-04-09T08:19:39.850Z,75.81
2023-04-09T08:20:37.990Z,77.40
2023-04-09T08:21:37.995Z,76.37
2023-04-09T08:22:37.974Z,77.78
2023-04-09T08:23:37.969Z,75.24
2023-04-09T08:24:37.977Z,76.30
2023-04-09T08:25:37.929Z,75.23
2023-04-09T08:26:37.920Z,76.50
2023-04-09T08:27:37.928Z,73.55
2023-04-09T08:28:37.901Z,73.85
2023-04-09T08:29:37.940Z,75.26
2023-04-09T08:30:37.885Z,73.98
2023-04-09T08:31:37.960Z,74.70
2023-04-09T08:32:37.889Z,75.38
2023-04-09T08:33:37.876Z,75.08
2023-04-09T08:34:37.837Z,74.29
2023-04-09T08:35:37.836Z,73.52
2023-04-09T08:36:37.864Z,73.61
2023-04-09T08:37:37.794Z,72.54
2023-04-09T08:38:37.785Z,74.55
2023-04-09T08:39:37.775Z,74.98
2023-04-09T08:40:37.770Z,73.31
2023-04-09T08:41:37.756Z,73.68
2023-04-09T08:42:37.732Z,73.57
2023-04-09T08:43:53.237Z,74.67
2023-04-09T08:44:38.712Z,74.81
2023-04-09T08:45:37.718Z,75.46
2023-04-09T08:46:37.703Z,79.05
2023-04-09T08:47:37.731Z,87.86
2023-04-09T08:48:37.794Z,99.27
2023-04-09T08:49:37.665Z,102.10
2023-04-09T08:50:37.673Z,110.00
2023-04-09T08:51:37.656Z,116.33
2023-04-09T08:52:37.625Z,120.92
2023-04-09T08:53:37.614Z,126.18
2023-04-09T08:54:37.650Z,131.80
2023-04-09T08:55:37.597Z,136.08
2023-04-09T08:56:37.582Z,140.58
2023-04-09T08:57:37.568Z,143.73
2023-04-09T08:58:37.554Z,147.72
2023-04-09T08:59:37.559Z,150.99
2023-04-09T09:00:37.626Z,155.87
2023-04-09T09:01:37.699Z,159.78
2023-04-09T09:02:37.764Z,161.26
2023-04-09T09:03:37.747Z,165.05
2023-04-09T09:04:37.757Z,167.59
2023-04-09T09:05:37.805Z,170.29
2023-04-09T09:06:37.834Z,174.52
2023-04-09T09:07:37.874Z,177.55
2023-04-09T09:08:37.945Z,179.04
2023-04-09T09:09:37.968Z,181.89
2023-04-09T09:10:38.009Z,184.04
2023-04-09T09:11:38.058Z,186.25
2023-04-09T09:12:38.112Z,189.14
2023-04-09T09:13:38.129Z,190.67
2023-04-09T09:14:38.179Z,194.06
2023-04-09T09:15:38.228Z,195.95
2023-04-09T09:16:38.287Z,199.33
2023-04-09T09:17:38.341Z,199.97
2023-04-09T09:18:38.319Z,201.14
2023-04-09T09:19:38.340Z,203.69
2023-04-09T09:20:38.367Z,205.87
2023-04-09T09:21:38.392Z,207.61
2023-04-09T09:22:38.409Z,209.29
2023-04-09T09:23:38.424Z,211.33
2023-04-09T09:24:38.438Z,212.81
2023-04-09T09:25:38.445Z,214.24
2023-04-09T09:26:38.460Z,216.22
2023-04-09T09:27:38.474Z,216.44
2023-04-09T09:28:38.497Z,220.06
2023-04-09T09:29:38.503Z,220.74
2023-04-09T09:30:38.576Z,222.53
2023-04-09T09:31:38.551Z,223.83
2023-04-09T09:32:38.618Z,224.58
2023-04-09T09:33:38.628Z,226.88
2023-04-09T09:34:38.639Z,228.13
2023-04-09T09:35:38.687Z,228.23
2023-04-09T09:36:38.714Z,229.66
2023-04-09T09:37:38.752Z,231.00
2023-04-09T09:38:38.765Z,232.51
2023-04-09T09:39:38.809Z,233.14
2023-04-09T09:40:38.812Z,236.19
2023-04-09T09:41:38.855Z,235.96
2023-04-09T09:42:38.890Z,236.79
2023-04-09T09:43:38.905Z,236.38
2023-04-09T09:44:38.927Z,239.22
2023-04-09T09:45:38.948Z,239.63
2023-04-09T09:46:39.015Z,241.18
2023-04-09T09:47:39.057Z,241.69
2023-04-09T09:48:38.999Z,241.82
2023-04-09T09:49:39.030Z,244.36
2023-04-09T09:50:39.047Z,244.19
2023-04-09T09:51:39.063Z,245.78
2023-04-09T09:52:39.061Z,246.78
2023-04-09T09:53:39.105Z,247.56
2023-04-09T09:54:39.084Z,248.63
2023-04-09T09:55:39.112Z,249.00
2023-04-09T09:56:39.137Z,249.27
2023-04-09T09:57:39.128Z,248.87
2023-04-09T09:58:39.143Z,248.31
2023-04-09T09:59:39.175Z,250.00
2023-04-09T10:00:39.199Z,249.45
2023-04-09T10:01:39.230Z,249.99
2023-04-09T10:02:39.296Z,249.93
2023-04-09T10:03:39.244Z,248.39
2023-04-09T10:04:39.274Z,248.96
2023-04-09T10:05:39.276Z,250.00
2023-04-09T10:06:39.282Z,248.85
2023-04-09T10:07:39.281Z,247.01
2023-04-09T10:08:39.294Z,248.43
2023-04-09T10:09:39.304Z,249.33
2023-04-09T10:10:39.335Z,248.19
2023-04-09T10:11:39.317Z,249.02
2023-04-09T10:12:39.322Z,247.90
2023-04-09T10:13:39.325Z,246.40
2023-04-09T10:14:39.340Z,249.03
2023-04-09T10:15:39.365Z,248.36
2023-04-09T10:16:39.345Z,248.60
2023-04-09T10:17:39.370Z,246.24
2023-04-09T10:18:39.358Z,247.79
2023-04-09T10:19:39.372Z,249.34
2023-04-09T10:20:39.377Z,248.03
2023-04-09T10:21:39.887Z,246.39
2023-04-09T10:22:39.388Z,245.35
2023-04-09T10:23:39.370Z,248.00
2023-04-09T10:24:39.370Z,247.09
2023-04-09T10:25:39.372Z,248.03
2023-04-09T10:26:39.346Z,248.04
2023-04-09T10:27:39.316Z,248.16
2023-04-09T10:28:39.302Z,248.39
2023-04-09T10:29:39.269Z,248.08
2023-04-09T10:30:39.240Z,248.26
2023-04-09T10:31:39.308Z,249.20
2023-04-09T10:32:39.205Z,248.76
2023-04-09T10:33:39.170Z,248.97
2023-04-09T10:34:39.163Z,248.99
2023-04-09T10:35:39.172Z,246.32
2023-04-09T10:36:39.100Z,246.50
2023-04-09T10:37:39.080Z,246.52
2023-04-09T10:38:39.043Z,247.21
2023-04-09T10:39:39.021Z,249.17
2023-04-09T10:40:38.993Z,249.75
2023-04-09T10:41:38.981Z,247.00
2023-04-09T10:42:38.936Z,246.49
2023-04-09T10:43:38.933Z,247.63
2023-04-09T10:44:38.889Z,247.91
2023-04-09T10:45:38.860Z,242.93
2023-04-09T10:46:38.904Z,247.30
2023-04-09T10:47:38.817Z,246.87
2023-04-09T10:48:38.769Z,247.84
2023-04-09T10:49:38.749Z,245.86
2023-04-09T10:50:38.721Z,246.02
2023-04-09T10:51:38.718Z,246.71
2023-04-09T10:52:38.669Z,245.03
2023-04-09T10:53:38.646Z,246.86
2023-04-09T10:54:38.613Z,246.22
2023-04-09T10:55:38.616Z,248.37
2023-04-09T10:56:38.564Z,247.02
2023-04-09T10:57:38.535Z,246.88
2023-04-09T10:58:38.505Z,247.26
2023-04-09T10:59:38.461Z,246.52
2023-04-09T11:00:38.480Z,245.34
2023-04-09T11:01:38.548Z,246.22
2023-04-09T11:02:38.619Z,247.18
2023-04-09T11:03:38.462Z,246.26
2023-04-09T11:04:38.470Z,248.17
2023-04-09T11:05:38.509Z,245.94
2023-04-09T11:06:38.458Z,245.89
2023-04-09T11:07:38.509Z,248.52
2023-04-09T11:08:38.553Z,246.68
2023-04-09T11:09:38.494Z,246.58
2023-04-09T11:10:38.535Z,247.64
2023-04-09T11:11:38.492Z,247.65
2023-04-09T11:12:38.453Z,248.02
2023-04-09T11:13:38.413Z,248.13
2023-04-09T11:14:38.390Z,247.85
2023-04-09T11:15:38.361Z,249.07
2023-04-09T11:16:38.339Z,248.46
2023-04-09T11:17:38.286Z,247.86
2023-04-09T11:18:38.243Z,247.43
2023-04-09T11:19:38.225Z,246.87
2023-04-09T11:20:38.223Z,247.87
2023-04-09T11:21:38.259Z,245.83
2023-04-09T11:22:38.279Z,246.64
2023-04-09T11:23:38.306Z,246.91
2023-04-09T11:24:38.348Z,247.90
2023-04-09T11:25:38.385Z,249.84
2023-04-09T11:26:38.422Z,248.75
2023-04-09T11:27:38.436Z,248.68
2023-04-09T11:28:38.501Z,247.99
2023-04-09T11:29:38.552Z,249.59
2023-04-09T11:30:38.555Z,248.29
2023-04-09T11:31:38.695Z,246.19
2023-04-09T11:32:38.726Z,248.31
2023-04-09T11:33:38.653Z,249.00
2023-04-09T11:34:38.681Z,247.51
2023-04-09T11:35:38.746Z,247.22
2023-04-09T11:36:38.744Z,245.48
2023-04-09T11:37:38.771Z,246.31
2023-04-09T11:38:38.789Z,247.74
2023-04-09T11:39:38.814Z,246.89
2023-04-09T11:40:38.829Z,247.13
2023-04-09T11:41:38.878Z,247.83
2023-04-09T11:42:38.941Z,248.96
2023-04-09T11:43:38.927Z,245.92
2023-04-09T11:44:38.951Z,247.50
2023-04-09T11:45:38.999Z,246.14
2023-04-09T11:46:39.100Z,245.87
2023-04-09T11:47:39.058Z,248.91
2023-04-09T11:48:39.050Z,247.21
2023-04-09T11:49:39.084Z,248.54
2023-04-09T11:50:39.108Z,246.74
2023-04-09T11:51:39.117Z,247.71
2023-04-09T11:52:39.112Z,247.88
2023-04-09T11:53:39.149Z,247.41
2023-04-09T11:54:39.131Z,248.17
2023-04-09T11:55:39.158Z,247.69
2023-04-09T11:56:39.162Z,248.03
2023-04-09T11:57:39.139Z,248.20
2023-04-09T11:58:39.144Z,248.75
2023-04-09T11:59:39.131Z,248.23
2023-04-09T12:00:39.157Z,249.48
2023-04-09T12:01:39.230Z,248.45
2023-04-09T12:02:39.211Z,246.47
2023-04-09T12:03:39.208Z,248.04
2023-04-09T12:04:39.279Z,250.00
2023-04-09T12:05:41.216Z,249.22
2023-04-09T12:06:39.127Z,249.23
2023-04-09T12:07:39.599Z,247.94
2023-04-09T12:08:39.042Z,248.16
2023-04-09T12:09:39.010Z,248.27
2023-04-09T12:10:38.986Z,248.39
2023-04-09T12:11:38.959Z,248.63
2023-04-09T12:12:38.900Z,247.91
2023-04-09T12:13:38.869Z,249.21
2023-04-09T12:14:38.832Z,247.74
2023-04-09T12:15:38.780Z,247.57
2023-04-09T12:16:38.804Z,247.58
2023-04-09T12:17:38.723Z,248.94
2023-04-09T12:18:38.669Z,248.36
2023-04-09T12:19:38.629Z,249.70
2023-04-09T12:20:38.608Z,248.81
2023-04-09T12:21:38.575Z,247.88
2023-04-09T12:22:38.564Z,247.98
2023-04-09T12:23:38.487Z,248.00
2023-04-09T12:24:38.491Z,248.02
2023-04-09T12:25:38.442Z,248.31
2023-04-09T12:26:38.404Z,248.15
2023-04-09T12:27:38.359Z,248.68
2023-04-09T12:28:38.318Z,249.92
2023-04-09T12:29:38.274Z,248.46
2023-04-09T12:30:38.254Z,249.85
2023-04-09T12:31:38.235Z,249.12
2023-04-09T12:32:38.213Z,248.69
2023-04-09T12:33:38.136Z,249.12
2023-04-09T12:34:38.113Z,249.48
2023-04-09T12:35:38.367Z,247.57
2023-04-09T12:36:38.032Z,248.63
2023-04-09T12:37:38.003Z,248.78
2023-04-09T12:38:37.983Z,248.89
2023-04-09T12:39:37.944Z,248.04